Morgenster — PHMY — position and weather

sailwx.info

Track history (hours):
 
Tides and Currents Weather Stations Pressure Air Temp Water Temp Dewpoint Dewpoint Depression Visibility Wind Speed Wind Dir Waves Ship Positions

Morgenster

Last reported at 2015-Mar-30 10:30 UTC. Time now 2015-Mar-30 10:40 UTC.
Position N 51°55' E 004°16'.

Length 38 m; draft 2.4 m.

Type: Sailing vessel. MMSI: 245136000.

Date/timePositionNaut miles runAvg speedWind from/ knotsBaromVisibWave heightAir tempDewpointWater temp
2015-Mar-30 10:30N 51°55' E 004°16'5 4.7
2015-Mar-30 09:33N 51°54' E 004°23'4 3.7
2015-Mar-30 08:33N 51°54' E 004°29'0 0.0
2015-Mar-30 07:33N 51°54' E 004°29'0 0.0
2015-Mar-30 06:33N 51°54' E 004°29'0 0.0
2015-Mar-30 05:33N 51°54' E 004°29'0 0.0
2015-Mar-30 04:33N 51°54' E 004°29'0 0.0
2015-Mar-30 03:33N 51°54' E 004°29'0 0.0
2015-Mar-30 02:33N 51°54' E 004°29'0 0.0
2015-Mar-30 01:33N 51°54' E 004°29'0 0.0
2015-Mar-30 00:33N 51°54' E 004°29'0 0.0
2015-Mar-29 23:33N 51°54' E 004°29'0 0.0
2015-Mar-29 22:33N 51°54' E 004°29'0 0.0
2015-Mar-29 21:33N 51°54' E 004°29'0 0.0
2015-Mar-29 20:33N 51°54' E 004°29'0 0.0
2015-Mar-29 19:33N 51°54' E 004°29'0 0.0
2015-Mar-29 18:32N 51°54' E 004°29'0 0.0
2015-Mar-29 17:32N 51°54' E 004°29'0 0.0
2015-Mar-29 16:32N 51°54' E 004°29'0 0.0
2015-Mar-29 15:32N 51°54' E 004°29'0 0.0
2015-Mar-29 14:32N 51°54' E 004°29'0 0.0
2015-Mar-29 13:32N 51°54' E 004°29'0 0.0
2015-Mar-29 12:32N 51°54' E 004°29'0 0.0
2015-Mar-29 11:32N 51°54' E 004°29'0 0.0
2015-Mar-29 10:32N 51°54' E 004°29'0 0.0
2015-Mar-29 09:32N 51°54' E 004°29'0 0.0
2015-Mar-29 08:32N 51°54' E 004°29'0 0.0
2015-Mar-29 07:32N 51°54' E 004°29'0 0.0
2015-Mar-29 06:32N 51°54' E 004°29'0 0.0
2015-Mar-29 05:32N 51°54' E 004°29'0 0.0
2015-Mar-29 04:32N 51°54' E 004°29'0 0.0
2015-Mar-29 03:32N 51°54' E 004°29'0 0.0
2015-Mar-29 02:32N 51°54' E 004°29'0 0.0
2015-Mar-29 01:32N 51°54' E 004°29'0 0.0
2015-Mar-29 00:32N 51°54' E 004°29'0 0.0
2015-Mar-28 23:32N 51°54' E 004°29'0 0.0
2015-Mar-28 22:32N 51°54' E 004°29'0 0.0
2015-Mar-28 21:32N 51°54' E 004°29'0 0.0
2015-Mar-28 20:32N 51°54' E 004°29'0 0.0
2015-Mar-28 19:32N 51°54' E 004°29'0 0.0
2015-Mar-28 18:32N 51°54' E 004°29'0 0.0
2015-Mar-28 17:32N 51°54' E 004°29'0 0.0
2015-Mar-28 16:29N 51°54' E 004°29'0 0.0
2015-Mar-28 15:32N 51°54' E 004°29'0 0.0
2015-Mar-28 14:32N 51°54' E 004°29'0 0.0
2015-Mar-28 13:32N 51°54' E 004°29'0 0.0
2015-Mar-28 12:32N 51°54' E 004°29'0 0.0
2015-Mar-28 11:32N 51°54' E 004°29'0 0.0
2015-Mar-28 10:32N 51°54' E 004°29'0 0.0
2015-Mar-28 09:32N 51°54' E 004°29'0 0.0
2015-Mar-28 08:32N 51°54' E 004°29'0 0.0
2015-Mar-28 07:32N 51°54' E 004°29'0 0.0
2015-Mar-28 06:30N 51°54' E 004°29'6 5.6
2015-Mar-28 05:31N 51°54' E 004°20'7 7.0
2015-Mar-28 04:34N 51°57' E 004°10'6 5.8
2015-Mar-28 03:33N 52°00' E 004°02'8 8.0
2015-Mar-28 02:33N 52°08' E 004°07'9 8.8
2015-Mar-28 01:34N 52°15' E 004°14'8 8.3
2015-Mar-28 00:34N 52°22' E 004°21'39 7.1
2015-Mar-27 19:05N 52°58' E 004°45'2 2.9
2015-Mar-27 18:26N 52°57' E 004°47'1 0.1
2015-Mar-27 12:29N 52°57' E 004°46'0 0.3
2015-Mar-27 11:33N 52°58' E 004°47'6 1.1
2015-Mar-27 06:25N 53°02' E 004°52'0 0.0
2015-Mar-27 02:13N 53°02' E 004°52'0 0.1
2015-Mar-27 01:31N 53°02' E 004°52'0 0.0
2015-Mar-27 00:03N 53°02' E 004°52'12 8.1
2015-Mar-26 22:32N 52°53' E 004°38'8 8.2
2015-Mar-26 21:33N 52°52' E 004°25'99 8.3
2015-Mar-26 09:33N 52°12' E 001°56'1010.2
2015-Mar-26 08:34N 52°06' E 001°43'10 9.9
2015-Mar-26 07:33N 51°59' E 001°32'9 8.7
2015-Mar-26 06:34N 51°56' E 001°19'7 6.9
2015-Mar-26 05:33N 52°01' E 001°11'2 2.1
2015-Mar-26 04:32N 52°03' E 001°10'0 0.0
2015-Mar-26 02:20N 52°03' E 001°10'0 0.0
2015-Mar-26 01:32N 52°03' E 001°10'0 0.0
2015-Mar-26 00:32N 52°03' E 001°10'0 0.0
2015-Mar-25 22:32N 52°03' E 001°10'0 0.0
2015-Mar-25 20:20N 52°03' E 001°10'0 0.0
2015-Mar-25 12:27N 52°03' E 001°10'3 2.9
2015-Mar-25 11:33N 52°01' E 001°11'7 7.0
2015-Mar-25 10:33N 51°56' E 001°19'8 8.0
2015-Mar-25 09:33N 51°58' E 001°32'7 6.7
2015-Mar-25 08:33N 52°03' E 001°39'6 5.6
2015-Mar-25 07:33N 52°08' E 001°42'5 5.2
2015-Mar-25 06:33N 52°13' E 001°45'5 4.3
2015-Mar-25 05:27N 52°17' E 001°49'3 2.9
2015-Mar-25 04:33N 52°19' E 001°51'5 4.6
2015-Mar-25 03:29N 52°24' E 001°55'105 2.6
2015-Mar-23 10:24N 53°05' E 004°34'5 5.5
2015-Mar-23 09:33N 53°03' E 004°41'4 4.4
2015-Mar-23 08:33N 52°59' E 004°44'3 3.0
2015-Mar-23 07:28N 52°59' E 004°49'0 0.0
2015-Mar-23 06:31N 52°59' E 004°49'0 0.0
2015-Mar-23 05:28N 52°59' E 004°49'0 0.0
2015-Mar-23 04:31N 52°59' E 004°49'0 0.0
2015-Mar-23 02:22N 52°59' E 004°49'0 0.0
2015-Mar-23 01:19N 52°59' E 004°49'0 0.0
2015-Mar-23 00:04N 52°59' E 004°49'0 0.0
2015-Mar-22 20:22N 52°59' E 004°49'0 0.0
2015-Mar-22 19:13N 52°59' E 004°49'0 0.0
2015-Mar-22 18:31N 52°59' E 004°49'2 2.3
2015-Mar-22 17:33N 52°57' E 004°47'0 0.4
2015-Mar-22 16:19N 52°57' E 004°46'0 0.0
2015-Mar-22 15:10N 52°57' E 004°46'0 0.0
2015-Mar-22 12:25N 52°57' E 004°46'0 0.0
2015-Mar-22 08:28N 52°57' E 004°46'0 0.0
2015-Mar-22 04:19N 52°57' E 004°46'0 0.0
2015-Mar-21 23:13N 52°57' E 004°46'0 0.0
2015-Mar-20 17:10N 52°57' E 004°46'0 0.3
2015-Mar-20 16:20N 52°58' E 004°47'6 5.3
2015-Mar-20 15:08N 53°03' E 004°53'4 7.6
2015-Mar-20 14:33N 53°04' E 005°00'9 9.2
2015-Mar-20 13:33N 53°04' E 005°16'8 8.5
2015-Mar-20 12:33N 53°11' E 005°24'3 3.0
2015-Mar-20 11:33N 53°11' E 005°19'5 5.0
2015-Mar-20 10:33N 53°14' E 005°12'  
Track history (hours):
 
Tides and Currents Weather Stations Pressure Air Temp Water Temp Dewpoint Dewpoint Depression Visibility Wind Speed Wind Dir Waves Ship Positions

Morgenster

Last reported at 2015-Mar-30 10:30 UTC. Time now 2015-Mar-30 10:40 UTC.
Position N 51°55' E 004°16'.

Length 38 m; draft 2.4 m.

Type: Sailing vessel. MMSI: 245136000.

Date/timePositionNaut miles runAvg speedWind from/ knotsBaromVisibWave heightAir tempDewpointWater temp
2015-Mar-30 10:30N 51°55' E 004°16'5 4.7
2015-Mar-30 09:33N 51°54' E 004°23'4 3.7
2015-Mar-30 08:33N 51°54' E 004°29'0 0.0
2015-Mar-30 07:33N 51°54' E 004°29'0 0.0
2015-Mar-30 06:33N 51°54' E 004°29'0 0.0
2015-Mar-30 05:33N 51°54' E 004°29'0 0.0
2015-Mar-30 04:33N 51°54' E 004°29'0 0.0
2015-Mar-30 03:33N 51°54' E 004°29'0 0.0
2015-Mar-30 02:33N 51°54' E 004°29'0 0.0
2015-Mar-30 01:33N 51°54' E 004°29'0 0.0
2015-Mar-30 00:33N 51°54' E 004°29'0 0.0
2015-Mar-29 23:33N 51°54' E 004°29'0 0.0
2015-Mar-29 22:33N 51°54' E 004°29'0 0.0
2015-Mar-29 21:33N 51°54' E 004°29'0 0.0
2015-Mar-29 20:33N 51°54' E 004°29'0 0.0
2015-Mar-29 19:33N 51°54' E 004°29'0 0.0
2015-Mar-29 18:32N 51°54' E 004°29'0 0.0
2015-Mar-29 17:32N 51°54' E 004°29'0 0.0
2015-Mar-29 16:32N 51°54' E 004°29'0 0.0
2015-Mar-29 15:32N 51°54' E 004°29'0 0.0
2015-Mar-29 14:32N 51°54' E 004°29'0 0.0
2015-Mar-29 13:32N 51°54' E 004°29'0 0.0
2015-Mar-29 12:32N 51°54' E 004°29'0 0.0
2015-Mar-29 11:32N 51°54' E 004°29'0 0.0
2015-Mar-29 10:32N 51°54' E 004°29'0 0.0
2015-Mar-29 09:32N 51°54' E 004°29'0 0.0
2015-Mar-29 08:32N 51°54' E 004°29'0 0.0
2015-Mar-29 07:32N 51°54' E 004°29'0 0.0
2015-Mar-29 06:32N 51°54' E 004°29'0 0.0
2015-Mar-29 05:32N 51°54' E 004°29'0 0.0
2015-Mar-29 04:32N 51°54' E 004°29'0 0.0
2015-Mar-29 03:32N 51°54' E 004°29'0 0.0
2015-Mar-29 02:32N 51°54' E 004°29'0 0.0
2015-Mar-29 01:32N 51°54' E 004°29'0 0.0
2015-Mar-29 00:32N 51°54' E 004°29'0 0.0
2015-Mar-28 23:32N 51°54' E 004°29'0 0.0
2015-Mar-28 22:32N 51°54' E 004°29'0 0.0
2015-Mar-28 21:32N 51°54' E 004°29'0 0.0
2015-Mar-28 20:32N 51°54' E 004°29'0 0.0
2015-Mar-28 19:32N 51°54' E 004°29'0 0.0
2015-Mar-28 18:32N 51°54' E 004°29'0 0.0
2015-Mar-28 17:32N 51°54' E 004°29'0 0.0
2015-Mar-28 16:29N 51°54' E 004°29'0 0.0
2015-Mar-28 15:32N 51°54' E 004°29'0 0.0
2015-Mar-28 14:32N 51°54' E 004°29'0 0.0
2015-Mar-28 13:32N 51°54' E 004°29'0 0.0
2015-Mar-28 12:32N 51°54' E 004°29'0 0.0
2015-Mar-28 11:32N 51°54' E 004°29'0 0.0
2015-Mar-28 10:32N 51°54' E 004°29'0 0.0
2015-Mar-28 09:32N 51°54' E 004°29'0 0.0
2015-Mar-28 08:32N 51°54' E 004°29'0 0.0
2015-Mar-28 07:32N 51°54' E 004°29'0 0.0
2015-Mar-28 06:30N 51°54' E 004°29'6 5.6
2015-Mar-28 05:31N 51°54' E 004°20'7 7.0
2015-Mar-28 04:34N 51°57' E 004°10'6 5.8
2015-Mar-28 03:33N 52°00' E 004°02'8 8.0
2015-Mar-28 02:33N 52°08' E 004°07'9 8.8
2015-Mar-28 01:34N 52°15' E 004°14'8 8.3
2015-Mar-28 00:34N 52°22' E 004°21'39 7.1
2015-Mar-27 19:05N 52°58' E 004°45'2 2.9
2015-Mar-27 18:26N 52°57' E 004°47'1 0.1
2015-Mar-27 12:29N 52°57' E 004°46'0 0.3
2015-Mar-27 11:33N 52°58' E 004°47'6 1.1
2015-Mar-27 06:25N 53°02' E 004°52'0 0.0
2015-Mar-27 02:13N 53°02' E 004°52'0 0.1
2015-Mar-27 01:31N 53°02' E 004°52'0 0.0
2015-Mar-27 00:03N 53°02' E 004°52'12 8.1
2015-Mar-26 22:32N 52°53' E 004°38'8 8.2
2015-Mar-26 21:33N 52°52' E 004°25'99 8.3
2015-Mar-26 09:33N 52°12' E 001°56'1010.2
2015-Mar-26 08:34N 52°06' E 001°43'10 9.9
2015-Mar-26 07:33N 51°59' E 001°32'9 8.7
2015-Mar-26 06:34N 51°56' E 001°19'7 6.9
2015-Mar-26 05:33N 52°01' E 001°11'2 2.1
2015-Mar-26 04:32N 52°03' E 001°10'0 0.0
2015-Mar-26 02:20N 52°03' E 001°10'0 0.0
2015-Mar-26 01:32N 52°03' E 001°10'0 0.0
2015-Mar-26 00:32N 52°03' E 001°10'0 0.0
2015-Mar-25 22:32N 52°03' E 001°10'0 0.0
2015-Mar-25 20:20N 52°03' E 001°10'0 0.0
2015-Mar-25 12:27N 52°03' E 001°10'3 2.9
2015-Mar-25 11:33N 52°01' E 001°11'7 7.0
2015-Mar-25 10:33N 51°56' E 001°19'8 8.0
2015-Mar-25 09:33N 51°58' E 001°32'7 6.7
2015-Mar-25 08:33N 52°03' E 001°39'6 5.6
2015-Mar-25 07:33N 52°08' E 001°42'5 5.2
2015-Mar-25 06:33N 52°13' E 001°45'5 4.3
2015-Mar-25 05:27N 52°17' E 001°49'3 2.9
2015-Mar-25 04:33N 52°19' E 001°51'5 4.6
2015-Mar-25 03:29N 52°24' E 001°55'105 2.6
2015-Mar-23 10:24N 53°05' E 004°34'5 5.5
2015-Mar-23 09:33N 53°03' E 004°41'4 4.4
2015-Mar-23 08:33N 52°59' E 004°44'3 3.0
2015-Mar-23 07:28N 52°59' E 004°49'0 0.0
2015-Mar-23 06:31N 52°59' E 004°49'0 0.0
2015-Mar-23 05:28N 52°59' E 004°49'0 0.0
2015-Mar-23 04:31N 52°59' E 004°49'0 0.0
2015-Mar-23 02:22N 52°59' E 004°49'0 0.0
2015-Mar-23 01:19N 52°59' E 004°49'0 0.0
2015-Mar-23 00:04N 52°59' E 004°49'0 0.0
2015-Mar-22 20:22N 52°59' E 004°49'0 0.0
2015-Mar-22 19:13N 52°59' E 004°49'0 0.0
2015-Mar-22 18:31N 52°59' E 004°49'2 2.3
2015-Mar-22 17:33N 52°57' E 004°47'0 0.4
2015-Mar-22 16:19N 52°57' E 004°46'0 0.0
2015-Mar-22 15:10N 52°57' E 004°46'0 0.0
2015-Mar-22 12:25N 52°57' E 004°46'0 0.0
2015-Mar-22 08:28N 52°57' E 004°46'0 0.0
2015-Mar-22 04:19N 52°57' E 004°46'0 0.0
2015-Mar-21 23:13N 52°57' E 004°46'0 0.0
2015-Mar-20 17:10N 52°57' E 004°46'0 0.3
2015-Mar-20 16:20N 52°58' E 004°47'6 5.3
2015-Mar-20 15:08N 53°03' E 004°53'4 7.6
2015-Mar-20 14:33N 53°04' E 005°00'9 9.2
2015-Mar-20 13:33N 53°04' E 005°16'8 8.5
2015-Mar-20 12:33N 53°11' E 005°24'3 3.0
2015-Mar-20 11:33N 53°11' E 005°19'5 5.0
2015-Mar-20 10:33N 53°14' E 005°12'  

Dump ship's entire track history